sensor_id;sensor_type;location;lat;lon;timestamp;P1;durP1;ratioP1;P2;durP2;ratioP2
79204;SDS011;68632;47.512;19.104;2023-07-31T00:00:15;6.50;;;4.80;;
79204;SDS011;68632;47.512;19.104;2023-07-31T00:01:17;6.15;;;4.65;;
79204;SDS011;68632;47.512;19.104;2023-07-31T00:02:19;6.18;;;4.60;;
79204;SDS011;68632;47.512;19.104;2023-07-31T00:03:21;6.53;;;4.30;;
79204;SDS011;68632;47.512;19.104;2023-07-31T00:04:24;5.75;;;4.63;;
79204;SDS011;68632;47.512;19.104;2023-07-31T00:05:26;5.28;;;4.22;;
79204;SDS011;68632;47.512;19.104;2023-07-31T00:06:28;4.70;;;3.90;;
79204;SDS011;68632;47.512;19.104;2023-07-31T00:07:31;6.10;;;4.22;;
79204;SDS011;68632;47.512;19.104;2023-07-31T00:08:34;7.20;;;3.90;;
79204;SDS011;68632;47.512;19.104;2023-07-31T00:09:36;5.22;;;4.43;;
79204;SDS011;68632;47.512;19.104;2023-07-31T00:10:38;4.85;;;4.10;;
79204;SDS011;68632;47.512;19.104;2023-07-31T00:11:40;6.30;;;4.60;;
79204;SDS011;68632;47.512;19.104;2023-07-31T00:12:43;6.45;;;4.72;;
79204;SDS011;68632;47.512;19.104;2023-07-31T00:13:46;4.97;;;4.00;;
79204;SDS011;68632;47.512;19.104;2023-07-31T00:14:49;4.68;;;3.63;;
79204;SDS011;68632;47.512;19.104;2023-07-31T00:15:51;5.63;;;3.90;;
79204;SDS011;68632;47.512;19.104;2023-07-31T00:16:53;4.78;;;3.90;;
79204;SDS011;68632;47.512;19.104;2023-07-31T00:17:55;6.38;;;4.35;;
79204;SDS011;68632;47.512;19.104;2023-07-31T00:18:58;6.05;;;3.83;;
79204;SDS011;68632;47.512;19.104;2023-07-31T00:20:00;5.93;;;4.30;;
79204;SDS011;68632;47.512;19.104;2023-07-31T00:21:02;6.10;;;3.88;;
79204;SDS011;68632;47.512;19.104;2023-07-31T00:22:04;6.88;;;4.03;;
79204;SDS011;68632;47.512;19.104;2023-07-31T00:23:07;5.82;;;3.67;;
79204;SDS011;68632;47.512;19.104;2023-07-31T00:24:09;6.45;;;4.30;;
79204;SDS011;68632;47.512;19.104;2023-07-31T00:25:11;5.47;;;3.95;;
79204;SDS011;68632;47.512;19.104;2023-07-31T00:26:13;5.20;;;3.72;;
79204;SDS011;68632;47.512;19.104;2023-07-31T00:27:15;6.35;;;4.07;;
79204;SDS011;68632;47.512;19.104;2023-07-31T00:28:17;6.03;;;4.15;;
79204;SDS011;68632;47.512;19.104;2023-07-31T00:29:20;5.93;;;4.00;;
79204;SDS011;68632;47.512;19.104;2023-07-31T00:30:22;4.82;;;3.88;;
79204;SDS011;68632;47.512;19.104;2023-07-31T00:31:24;4.88;;;3.45;;
79204;SDS011;68632;47.512;19.104;2023-07-31T00:32:26;5.25;;;3.50;;
79204;SDS011;68632;47.512;19.104;2023-07-31T00:33:30;4.70;;;3.72;;
79204;SDS011;68632;47.512;19.104;2023-07-31T00:34:33;5.13;;;3.88;;
79204;SDS011;68632;47.512;19.104;2023-07-31T00:35:35;5.57;;;3.50;;
79204;SDS011;68632;47.512;19.104;2023-07-31T00:36:37;5.13;;;3.92;;
79204;SDS011;68632;47.512;19.104;2023-07-31T00:37:40;7.25;;;4.10;;
79204;SDS011;68632;47.512;19.104;2023-07-31T00:38:42;5.50;;;4.00;;
79204;SDS011;68632;47.512;19.104;2023-07-31T00:39:44;5.95;;;4.05;;
79204;SDS011;68632;47.512;19.104;2023-07-31T00:40:46;5.22;;;3.88;;
79204;SDS011;68632;47.512;19.104;2023-07-31T00:41:49;4.20;;;3.70;;
79204;SDS011;68632;47.512;19.104;2023-07-31T00:42:51;5.43;;;3.88;;
79204;SDS011;68632;47.512;19.104;2023-07-31T00:43:53;5.88;;;3.70;;
79204;SDS011;68632;47.512;19.104;2023-07-31T00:44:55;5.72;;;3.80;;
79204;SDS011;68632;47.512;19.104;2023-07-31T00:45:57;6.07;;;4.07;;
79204;SDS011;68632;47.512;19.104;2023-07-31T00:46:59;6.07;;;4.40;;
79204;SDS011;68632;47.512;19.104;2023-07-31T00:48:02;4.55;;;3.45;;
79204;SDS011;68632;47.512;19.104;2023-07-31T00:49:04;4.78;;;3.60;;
79204;SDS011;68632;47.512;19.104;2023-07-31T00:50:07;5.30;;;4.15;;
79204;SDS011;68632;47.512;19.104;2023-07-31T00:51:10;7.13;;;3.88;;
79204;SDS011;68632;47.512;19.104;2023-07-31T00:52:12;7.88;;;4.13;;
79204;SDS011;68632;47.512;19.104;2023-07-31T00:53:15;4.55;;;3.70;;
79204;SDS011;68632;47.512;19.104;2023-07-31T00:54:17;5.00;;;3.75;;
79204;SDS011;68632;47.512;19.104;2023-07-31T00:55:19;4.72;;;4.05;;
79204;SDS011;68632;47.512;19.104;2023-07-31T00:56:23;5.45;;;3.92;;
79204;SDS011;68632;47.512;19.104;2023-07-31T00:57:26;4.72;;;3.72;;
79204;SDS011;68632;47.512;19.104;2023-07-31T00:58:28;5.63;;;4.00;;
79204;SDS011;68632;47.512;19.104;2023-07-31T00:59:30;4.68;;;3.72;;
79204;SDS011;68632;47.512;19.104;2023-07-31T01:00:32;6.28;;;4.00;;
79204;SDS011;68632;47.512;19.104;2023-07-31T01:01:34;5.57;;;4.20;;
79204;SDS011;68632;47.512;19.104;2023-07-31T01:02:37;6.43;;;4.32;;
79204;SDS011;68632;47.512;19.104;2023-07-31T01:03:39;6.68;;;4.47;;
79204;SDS011;68632;47.512;19.104;2023-07-31T01:04:42;5.22;;;4.20;;
79204;SDS011;68632;47.512;19.104;2023-07-31T01:05:49;6.80;;;4.10;;
79204;SDS011;68632;47.512;19.104;2023-07-31T01:07:10;6.68;;;4.45;;
79204;SDS011;68632;47.512;19.104;2023-07-31T01:11:00;7.22;;;4.72;;
79204;SDS011;68632;47.512;19.104;2023-07-31T01:12:07;5.32;;;4.78;;
79204;SDS011;68632;47.512;19.104;2023-07-31T01:13:11;4.68;;;3.92;;
79204;SDS011;68632;47.512;19.104;2023-07-31T01:14:13;5.25;;;4.13;;
79204;SDS011;68632;47.512;19.104;2023-07-31T01:15:16;5.70;;;4.63;;
79204;SDS011;68632;47.512;19.104;2023-07-31T01:16:19;6.30;;;4.35;;
79204;SDS011;68632;47.512;19.104;2023-07-31T01:17:21;5.38;;;4.28;;
79204;SDS011;68632;47.512;19.104;2023-07-31T01:18:24;8.10;;;4.57;;
79204;SDS011;68632;47.512;19.104;2023-07-31T01:19:26;7.25;;;4.40;;
79204;SDS011;68632;47.512;19.104;2023-07-31T01:20:32;5.60;;;4.38;;
79204;SDS011;68632;47.512;19.104;2023-07-31T01:25:08;6.18;;;4.65;;
79204;SDS011;68632;47.512;19.104;2023-07-31T01:26:36;6.20;;;4.82;;
79204;SDS011;68632;47.512;19.104;2023-07-31T01:27:44;5.45;;;4.65;;
79204;SDS011;68632;47.512;19.104;2023-07-31T01:30:19;6.40;;;5.35;;
79204;SDS011;68632;47.512;19.104;2023-07-31T01:31:24;7.88;;;5.20;;
79204;SDS011;68632;47.512;19.104;2023-07-31T01:32:28;6.30;;;4.93;;
79204;SDS011;68632;47.512;19.104;2023-07-31T01:33:30;6.93;;;5.32;;
79204;SDS011;68632;47.512;19.104;2023-07-31T01:34:33;5.68;;;5.07;;
79204;SDS011;68632;47.512;19.104;2023-07-31T01:35:36;7.97;;;4.95;;
79204;SDS011;68632;47.512;19.104;2023-07-31T01:36:39;7.30;;;5.55;;
79204;SDS011;68632;47.512;19.104;2023-07-31T01:37:42;6.18;;;5.30;;
79204;SDS011;68632;47.512;19.104;2023-07-31T01:38:44;9.65;;;6.10;;
79204;SDS011;68632;47.512;19.104;2023-07-31T01:39:46;8.82;;;5.95;;
79204;SDS011;68632;47.512;19.104;2023-07-31T01:40:52;8.15;;;6.22;;
79204;SDS011;68632;47.512;19.104;2023-07-31T01:41:55;10.20;;;6.40;;
79204;SDS011;68632;47.512;19.104;2023-07-31T01:42:57;9.05;;;6.30;;
79204;SDS011;68632;47.512;19.104;2023-07-31T01:43:59;7.60;;;6.30;;
79204;SDS011;68632;47.512;19.104;2023-07-31T01:45:01;7.93;;;6.10;;
79204;SDS011;68632;47.512;19.104;2023-07-31T01:46:04;8.00;;;6.38;;
79204;SDS011;68632;47.512;19.104;2023-07-31T01:47:06;7.80;;;5.78;;
79204;SDS011;68632;47.512;19.104;2023-07-31T01:48:08;9.25;;;5.70;;
79204;SDS011;68632;47.512;19.104;2023-07-31T01:49:10;8.18;;;7.00;;
79204;SDS011;68632;47.512;19.104;2023-07-31T01:50:12;8.48;;;6.32;;
79204;SDS011;68632;47.512;19.104;2023-07-31T01:51:15;8.05;;;6.70;;
79204;SDS011;68632;47.512;19.104;2023-07-31T01:52:17;7.95;;;6.47;;
79204;SDS011;68632;47.512;19.104;2023-07-31T01:53:19;7.47;;;6.53;;
79204;SDS011;68632;47.512;19.104;2023-07-31T01:54:21;7.47;;;6.32;;
79204;SDS011;68632;47.512;19.104;2023-07-31T01:55:23;9.32;;;6.43;;
79204;SDS011;68632;47.512;19.104;2023-07-31T01:56:26;10.95;;;6.40;;
79204;SDS011;68632;47.512;19.104;2023-07-31T01:57:28;8.25;;;6.20;;
79204;SDS011;68632;47.512;19.104;2023-07-31T01:58:30;8.48;;;6.72;;
79204;SDS011;68632;47.512;19.104;2023-07-31T01:59:32;7.28;;;6.30;;
79204;SDS011;68632;47.512;19.104;2023-07-31T02:00:34;8.38;;;6.57;;
79204;SDS011;68632;47.512;19.104;2023-07-31T02:01:36;8.45;;;6.88;;
79204;SDS011;68632;47.512;19.104;2023-07-31T02:02:39;8.55;;;7.25;;
79204;SDS011;68632;47.512;19.104;2023-07-31T02:03:41;7.32;;;6.57;;
79204;SDS011;68632;47.512;19.104;2023-07-31T02:04:44;8.23;;;6.88;;
79204;SDS011;68632;47.512;19.104;2023-07-31T02:05:47;9.50;;;6.75;;
79204;SDS011;68632;47.512;19.104;2023-07-31T02:06:49;9.38;;;6.47;;
79204;SDS011;68632;47.512;19.104;2023-07-31T02:07:52;8.93;;;7.15;;
79204;SDS011;68632;47.512;19.104;2023-07-31T02:08:54;9.10;;;7.22;;
79204;SDS011;68632;47.512;19.104;2023-07-31T02:09:56;9.00;;;7.70;;
79204;SDS011;68632;47.512;19.104;2023-07-31T02:10:58;10.40;;;7.50;;
79204;SDS011;68632;47.512;19.104;2023-07-31T02:12:00;7.85;;;6.60;;
79204;SDS011;68632;47.512;19.104;2023-07-31T02:13:03;8.68;;;6.72;;
79204;SDS011;68632;47.512;19.104;2023-07-31T02:14:05;8.52;;;6.65;;
79204;SDS011;68632;47.512;19.104;2023-07-31T02:15:08;8.55;;;7.65;;
79204;SDS011;68632;47.512;19.104;2023-07-31T02:16:10;11.85;;;6.93;;
79204;SDS011;68632;47.512;19.104;2023-07-31T02:17:12;12.98;;;7.18;;
79204;SDS011;68632;47.512;19.104;2023-07-31T02:18:14;11.18;;;6.78;;
79204;SDS011;68632;47.512;19.104;2023-07-31T02:19:17;9.68;;;7.18;;
79204;SDS011;68632;47.512;19.104;2023-07-31T02:20:19;9.07;;;7.47;;
79204;SDS011;68632;47.512;19.104;2023-07-31T02:21:21;8.35;;;7.40;;
79204;SDS011;68632;47.512;19.104;2023-07-31T02:22:25;8.05;;;7.00;;
79204;SDS011;68632;47.512;19.104;2023-07-31T02:23:27;9.88;;;7.18;;
79204;SDS011;68632;47.512;19.104;2023-07-31T02:24:29;8.43;;;6.53;;
79204;SDS011;68632;47.512;19.104;2023-07-31T02:25:31;8.65;;;6.97;;
79204;SDS011;68632;47.512;19.104;2023-07-31T02:26:33;8.63;;;7.00;;
79204;SDS011;68632;47.512;19.104;2023-07-31T02:27:36;7.88;;;7.07;;
79204;SDS011;68632;47.512;19.104;2023-07-31T02:28:38;9.20;;;7.57;;
79204;SDS011;68632;47.512;19.104;2023-07-31T02:29:40;7.88;;;7.07;;
79204;SDS011;68632;47.512;19.104;2023-07-31T02:30:45;10.65;;;6.93;;
79204;SDS011;68632;47.512;19.104;2023-07-31T02:31:50;8.38;;;6.72;;
79204;SDS011;68632;47.512;19.104;2023-07-31T02:32:53;7.68;;;6.88;;
79204;SDS011;68632;47.512;19.104;2023-07-31T02:33:55;7.40;;;6.50;;
79204;SDS011;68632;47.512;19.104;2023-07-31T02:34:57;7.38;;;6.15;;
79204;SDS011;68632;47.512;19.104;2023-07-31T02:35:59;8.98;;;6.18;;
79204;SDS011;68632;47.512;19.104;2023-07-31T02:37:02;8.40;;;6.15;;
79204;SDS011;68632;47.512;19.104;2023-07-31T02:38:04;12.02;;;6.40;;
79204;SDS011;68632;47.512;19.104;2023-07-31T02:39:06;6.97;;;6.03;;
79204;SDS011;68632;47.512;19.104;2023-07-31T02:40:08;7.80;;;6.43;;
79204;SDS011;68632;47.512;19.104;2023-07-31T02:41:11;9.15;;;5.95;;
79204;SDS011;68632;47.512;19.104;2023-07-31T02:42:13;10.50;;;6.50;;
79204;SDS011;68632;47.512;19.104;2023-07-31T02:43:16;7.15;;;5.63;;
79204;SDS011;68632;47.512;19.104;2023-07-31T02:44:18;7.18;;;5.75;;
79204;SDS011;68632;47.512;19.104;2023-07-31T02:45:22;7.68;;;5.53;;
79204;SDS011;68632;47.512;19.104;2023-07-31T02:46:24;6.45;;;5.13;;
79204;SDS011;68632;47.512;19.104;2023-07-31T02:47:26;6.40;;;5.22;;
79204;SDS011;68632;47.512;19.104;2023-07-31T02:48:29;6.90;;;5.03;;
79204;SDS011;68632;47.512;19.104;2023-07-31T02:49:31;6.40;;;5.28;;
79204;SDS011;68632;47.512;19.104;2023-07-31T02:50:33;8.85;;;5.05;;
79204;SDS011;68632;47.512;19.104;2023-07-31T02:51:35;5.93;;;4.80;;
79204;SDS011;68632;47.512;19.104;2023-07-31T02:52:37;7.65;;;5.75;;
79204;SDS011;68632;47.512;19.104;2023-07-31T02:53:40;8.52;;;5.15;;
79204;SDS011;68632;47.512;19.104;2023-07-31T02:54:42;9.40;;;5.07;;
79204;SDS011;68632;47.512;19.104;2023-07-31T02:55:44;6.15;;;4.85;;
79204;SDS011;68632;47.512;19.104;2023-07-31T02:56:46;6.43;;;5.07;;
79204;SDS011;68632;47.512;19.104;2023-07-31T02:57:49;5.75;;;4.82;;
79204;SDS011;68632;47.512;19.104;2023-07-31T02:58:51;6.78;;;5.38;;
79204;SDS011;68632;47.512;19.104;2023-07-31T02:59:53;8.02;;;5.28;;
79204;SDS011;68632;47.512;19.104;2023-07-31T03:00:55;7.32;;;4.72;;
79204;SDS011;68632;47.512;19.104;2023-07-31T03:03:02;8.32;;;4.97;;
79204;SDS011;68632;47.512;19.104;2023-07-31T03:04:04;8.43;;;5.15;;
79204;SDS011;68632;47.512;19.104;2023-07-31T03:05:06;5.65;;;4.60;;
79204;SDS011;68632;47.512;19.104;2023-07-31T03:06:09;6.28;;;4.72;;
79204;SDS011;68632;47.512;19.104;2023-07-31T03:07:11;7.60;;;4.95;;
79204;SDS011;68632;47.512;19.104;2023-07-31T03:08:13;6.82;;;4.80;;
79204;SDS011;68632;47.512;19.104;2023-07-31T03:09:16;7.53;;;5.25;;
79204;SDS011;68632;47.512;19.104;2023-07-31T03:10:18;6.65;;;5.07;;
79204;SDS011;68632;47.512;19.104;2023-07-31T03:11:20;5.95;;;4.90;;
79204;SDS011;68632;47.512;19.104;2023-07-31T03:12:22;6.93;;;4.65;;
79204;SDS011;68632;47.512;19.104;2023-07-31T03:13:25;6.70;;;5.38;;
79204;SDS011;68632;47.512;19.104;2023-07-31T03:14:27;5.90;;;4.82;;
79204;SDS011;68632;47.512;19.104;2023-07-31T03:15:29;9.23;;;5.18;;
79204;SDS011;68632;47.512;19.104;2023-07-31T03:16:31;6.38;;;4.45;;
79204;SDS011;68632;47.512;19.104;2023-07-31T03:17:33;6.60;;;4.68;;
79204;SDS011;68632;47.512;19.104;2023-07-31T03:18:36;6.10;;;4.90;;
79204;SDS011;68632;47.512;19.104;2023-07-31T03:19:38;7.13;;;4.93;;
79204;SDS011;68632;47.512;19.104;2023-07-31T03:20:43;7.45;;;4.53;;
79204;SDS011;68632;47.512;19.104;2023-07-31T03:21:46;7.40;;;5.55;;
79204;SDS011;68632;47.512;19.104;2023-07-31T03:22:48;7.47;;;4.88;;
79204;SDS011;68632;47.512;19.104;2023-07-31T03:23:50;8.43;;;4.78;;
79204;SDS011;68632;47.512;19.104;2023-07-31T03:24:52;6.35;;;4.50;;
79204;SDS011;68632;47.512;19.104;2023-07-31T03:26:01;6.88;;;4.82;;
79204;SDS011;68632;47.512;19.104;2023-07-31T03:27:07;6.82;;;5.05;;
79204;SDS011;68632;47.512;19.104;2023-07-31T03:28:09;8.35;;;4.95;;
79204;SDS011;68632;47.512;19.104;2023-07-31T03:29:11;7.32;;;5.32;;
79204;SDS011;68632;47.512;19.104;2023-07-31T03:30:13;7.30;;;4.70;;
79204;SDS011;68632;47.512;19.104;2023-07-31T03:31:16;5.78;;;4.35;;
79204;SDS011;68632;47.512;19.104;2023-07-31T03:32:18;8.85;;;5.05;;
79204;SDS011;68632;47.512;19.104;2023-07-31T03:33:20;6.80;;;5.22;;
79204;SDS011;68632;47.512;19.104;2023-07-31T03:34:22;7.38;;;5.15;;
79204;SDS011;68632;47.512;19.104;2023-07-31T03:35:24;6.15;;;4.57;;
79204;SDS011;68632;47.512;19.104;2023-07-31T03:36:27;7.32;;;4.93;;
79204;SDS011;68632;47.512;19.104;2023-07-31T03:37:29;6.13;;;4.43;;
79204;SDS011;68632;47.512;19.104;2023-07-31T03:38:31;7.93;;;4.63;;
79204;SDS011;68632;47.512;19.104;2023-07-31T03:39:33;7.07;;;4.25;;
79204;SDS011;68632;47.512;19.104;2023-07-31T03:40:35;6.90;;;4.80;;
79204;SDS011;68632;47.512;19.104;2023-07-31T03:41:37;6.78;;;4.20;;
79204;SDS011;68632;47.512;19.104;2023-07-31T03:42:40;5.60;;;5.00;;
79204;SDS011;68632;47.512;19.104;2023-07-31T03:43:42;6.05;;;4.70;;
79204;SDS011;68632;47.512;19.104;2023-07-31T03:44:44;9.25;;;4.57;;
79204;SDS011;68632;47.512;19.104;2023-07-31T03:45:46;6.28;;;4.20;;
79204;SDS011;68632;47.512;19.104;2023-07-31T03:46:48;6.18;;;4.95;;
79204;SDS011;68632;47.512;19.104;2023-07-31T03:47:51;6.35;;;4.60;;
79204;SDS011;68632;47.512;19.104;2023-07-31T03:48:53;6.13;;;4.45;;
79204;SDS011;68632;47.512;19.104;2023-07-31T03:49:55;6.40;;;4.28;;
79204;SDS011;68632;47.512;19.104;2023-07-31T03:50:58;6.97;;;4.35;;
79204;SDS011;68632;47.512;19.104;2023-07-31T03:52:00;7.28;;;4.68;;
79204;SDS011;68632;47.512;19.104;2023-07-31T03:53:02;7.00;;;4.30;;
79204;SDS011;68632;47.512;19.104;2023-07-31T03:54:04;8.57;;;4.82;;
79204;SDS011;68632;47.512;19.104;2023-07-31T03:55:06;6.07;;;4.43;;
79204;SDS011;68632;47.512;19.104;2023-07-31T03:56:09;6.13;;;4.50;;
79204;SDS011;68632;47.512;19.104;2023-07-31T03:57:11;7.32;;;4.18;;
79204;SDS011;68632;47.512;19.104;2023-07-31T03:58:14;7.63;;;4.30;;
79204;SDS011;68632;47.512;19.104;2023-07-31T03:59:16;10.38;;;4.07;;
79204;SDS011;68632;47.512;19.104;2023-07-31T04:00:18;5.13;;;3.88;;
79204;SDS011;68632;47.512;19.104;2023-07-31T04:01:20;7.07;;;4.05;;
79204;SDS011;68632;47.512;19.104;2023-07-31T04:02:22;8.48;;;4.22;;
79204;SDS011;68632;47.512;19.104;2023-07-31T04:03:25;6.15;;;3.78;;
79204;SDS011;68632;47.512;19.104;2023-07-31T04:04:27;6.43;;;4.05;;
79204;SDS011;68632;47.512;19.104;2023-07-31T04:05:32;7.32;;;4.18;;
79204;SDS011;68632;47.512;19.104;2023-07-31T04:06:35;5.80;;;3.67;;
79204;SDS011;68632;47.512;19.104;2023-07-31T04:07:37;5.95;;;3.63;;
79204;SDS011;68632;47.512;19.104;2023-07-31T04:08:39;5.15;;;3.67;;
79204;SDS011;68632;47.512;19.104;2023-07-31T04:09:41;5.05;;;3.83;;
79204;SDS011;68632;47.512;19.104;2023-07-31T04:10:44;5.88;;;3.63;;
79204;SDS011;68632;47.512;19.104;2023-07-31T04:11:46;6.15;;;3.72;;
79204;SDS011;68632;47.512;19.104;2023-07-31T04:12:48;5.65;;;3.55;;
79204;SDS011;68632;47.512;19.104;2023-07-31T04:13:50;4.95;;;3.85;;
79204;SDS011;68632;47.512;19.104;2023-07-31T04:14:53;7.32;;;3.53;;
79204;SDS011;68632;47.512;19.104;2023-07-31T04:15:55;4.38;;;3.38;;
79204;SDS011;68632;47.512;19.104;2023-07-31T04:16:57;6.97;;;3.75;;
79204;SDS011;68632;47.512;19.104;2023-07-31T04:17:59;5.10;;;3.20;;
79204;SDS011;68632;47.512;19.104;2023-07-31T04:19:01;6.82;;;4.00;;
79204;SDS011;68632;47.512;19.104;2023-07-31T04:20:05;5.22;;;3.47;;
79204;SDS011;68632;47.512;19.104;2023-07-31T04:21:07;5.55;;;3.40;;
79204;SDS011;68632;47.512;19.104;2023-07-31T04:22:10;7.53;;;3.60;;
79204;SDS011;68632;47.512;19.104;2023-07-31T04:23:12;6.93;;;3.60;;
79204;SDS011;68632;47.512;19.104;2023-07-31T04:24:14;4.40;;;3.30;;
79204;SDS011;68632;47.512;19.104;2023-07-31T04:25:16;7.22;;;3.55;;
79204;SDS011;68632;47.512;19.104;2023-07-31T04:26:18;4.55;;;3.55;;
79204;SDS011;68632;47.512;19.104;2023-07-31T04:27:21;4.65;;;3.40;;
79204;SDS011;68632;47.512;19.104;2023-07-31T04:28:23;5.65;;;3.13;;
79204;SDS011;68632;47.512;19.104;2023-07-31T04:29:25;5.22;;;3.25;;
79204;SDS011;68632;47.512;19.104;2023-07-31T04:30:27;6.32;;;3.53;;
79204;SDS011;68632;47.512;19.104;2023-07-31T04:31:29;5.82;;;3.13;;
79204;SDS011;68632;47.512;19.104;2023-07-31T04:32:32;7.05;;;3.28;;
79204;SDS011;68632;47.512;19.104;2023-07-31T04:33:34;6.28;;;3.60;;
79204;SDS011;68632;47.512;19.104;2023-07-31T04:34:36;4.15;;;3.08;;
79204;SDS011;68632;47.512;19.104;2023-07-31T04:35:39;5.55;;;3.45;;
79204;SDS011;68632;47.512;19.104;2023-07-31T04:36:41;4.28;;;3.40;;
79204;SDS011;68632;47.512;19.104;2023-07-31T04:37:43;5.75;;;3.30;;
79204;SDS011;68632;47.512;19.104;2023-07-31T04:38:48;5.32;;;3.25;;
79204;SDS011;68632;47.512;19.104;2023-07-31T04:39:50;5.05;;;3.13;;
79204;SDS011;68632;47.512;19.104;2023-07-31T04:40:53;5.28;;;3.25;;
79204;SDS011;68632;47.512;19.104;2023-07-31T04:41:55;5.28;;;3.63;;
79204;SDS011;68632;47.512;19.104;2023-07-31T04:42:57;5.97;;;3.35;;
79204;SDS011;68632;47.512;19.104;2023-07-31T04:43:59;4.45;;;3.10;;
79204;SDS011;68632;47.512;19.104;2023-07-31T04:45:01;4.32;;;3.03;;
79204;SDS011;68632;47.512;19.104;2023-07-31T04:46:04;9.52;;;3.53;;
79204;SDS011;68632;47.512;19.104;2023-07-31T04:47:07;3.97;;;2.80;;
79204;SDS011;68632;47.512;19.104;2023-07-31T04:48:09;4.07;;;3.00;;
79204;SDS011;68632;47.512;19.104;2023-07-31T04:49:11;7.00;;;3.20;;
79204;SDS011;68632;47.512;19.104;2023-07-31T04:50:13;4.00;;;3.20;;
79204;SDS011;68632;47.512;19.104;2023-07-31T04:51:16;6.00;;;3.65;;
79204;SDS011;68632;47.512;19.104;2023-07-31T04:52:18;6.53;;;3.30;;
79204;SDS011;68632;47.512;19.104;2023-07-31T04:53:20;4.40;;;2.97;;
79204;SDS011;68632;47.512;19.104;2023-07-31T04:54:22;3.95;;;2.92;;
79204;SDS011;68632;47.512;19.104;2023-07-31T04:55:28;4.32;;;2.83;;
79204;SDS011;68632;47.512;19.104;2023-07-31T04:56:30;7.00;;;3.20;;
79204;SDS011;68632;47.512;19.104;2023-07-31T04:57:32;5.47;;;3.15;;
79204;SDS011;68632;47.512;19.104;2023-07-31T04:58:34;6.00;;;3.10;;
79204;SDS011;68632;47.512;19.104;2023-07-31T04:59:36;5.18;;;2.90;;
79204;SDS011;68632;47.512;19.104;2023-07-31T05:00:39;5.85;;;3.00;;
79204;SDS011;68632;47.512;19.104;2023-07-31T05:01:41;6.60;;;3.95;;
79204;SDS011;68632;47.512;19.104;2023-07-31T05:02:43;6.90;;;3.25;;
79204;SDS011;68632;47.512;19.104;2023-07-31T05:03:45;3.75;;;2.45;;
79204;SDS011;68632;47.512;19.104;2023-07-31T05:04:48;4.40;;;3.10;;
79204;SDS011;68632;47.512;19.104;2023-07-31T05:05:50;5.90;;;3.40;;
79204;SDS011;68632;47.512;19.104;2023-07-31T05:06:52;4.63;;;3.30;;
79204;SDS011;68632;47.512;19.104;2023-07-31T05:07:55;7.35;;;3.13;;
79204;SDS011;68632;47.512;19.104;2023-07-31T05:08:57;5.45;;;3.10;;
79204;SDS011;68632;47.512;19.104;2023-07-31T05:09:59;3.65;;;2.80;;
79204;SDS011;68632;47.512;19.104;2023-07-31T05:11:02;5.80;;;2.92;;
79204;SDS011;68632;47.512;19.104;2023-07-31T05:12:04;6.40;;;3.60;;
79204;SDS011;68632;47.512;19.104;2023-07-31T05:13:07;4.35;;;2.97;;
79204;SDS011;68632;47.512;19.104;2023-07-31T05:14:09;4.63;;;3.25;;
79204;SDS011;68632;47.512;19.104;2023-07-31T05:15:12;4.35;;;2.70;;
79204;SDS011;68632;47.512;19.104;2023-07-31T05:16:14;5.90;;;2.95;;
79204;SDS011;68632;47.512;19.104;2023-07-31T05:17:17;6.57;;;3.10;;
79204;SDS011;68632;47.512;19.104;2023-07-31T05:18:19;6.05;;;3.42;;
79204;SDS011;68632;47.512;19.104;2023-07-31T05:19:21;6.38;;;3.45;;
79204;SDS011;68632;47.512;19.104;2023-07-31T05:20:23;5.53;;;3.05;;
79204;SDS011;68632;47.512;19.104;2023-07-31T05:21:25;6.90;;;2.78;;
79204;SDS011;68632;47.512;19.104;2023-07-31T05:22:27;4.82;;;2.67;;
79204;SDS011;68632;47.512;19.104;2023-07-31T05:23:30;6.30;;;3.40;;
79204;SDS011;68632;47.512;19.104;2023-07-31T05:24:34;4.97;;;2.92;;
79204;SDS011;68632;47.512;19.104;2023-07-31T05:25:36;3.88;;;2.72;;
79204;SDS011;68632;47.512;19.104;2023-07-31T05:26:39;5.05;;;2.88;;
79204;SDS011;68632;47.512;19.104;2023-07-31T05:27:41;4.03;;;2.60;;
79204;SDS011;68632;47.512;19.104;2023-07-31T05:28:44;3.63;;;2.40;;
79204;SDS011;68632;47.512;19.104;2023-07-31T05:29:46;4.15;;;2.50;;
79204;SDS011;68632;47.512;19.104;2023-07-31T05:30:48;5.28;;;2.60;;
79204;SDS011;68632;47.512;19.104;2023-07-31T05:31:50;5.78;;;2.97;;
79204;SDS011;68632;47.512;19.104;2023-07-31T05:32:53;4.68;;;2.67;;
79204;SDS011;68632;47.512;19.104;2023-07-31T05:33:55;5.35;;;2.72;;
79204;SDS011;68632;47.512;19.104;2023-07-31T05:34:57;5.72;;;3.25;;
79204;SDS011;68632;47.512;19.104;2023-07-31T05:35:59;4.93;;;2.72;;
79204;SDS011;68632;47.512;19.104;2023-07-31T05:37:01;4.00;;;2.60;;
79204;SDS011;68632;47.512;19.104;2023-07-31T05:38:03;5.40;;;2.75;;
79204;SDS011;68632;47.512;19.104;2023-07-31T05:39:06;5.78;;;2.70;;
79204;SDS011;68632;47.512;19.104;2023-07-31T05:40:10;3.20;;;2.28;;
79204;SDS011;68632;47.512;19.104;2023-07-31T05:41:12;3.85;;;2.63;;
79204;SDS011;68632;47.512;19.104;2023-07-31T05:42:15;5.03;;;2.63;;
79204;SDS011;68632;47.512;19.104;2023-07-31T05:43:17;8.30;;;2.90;;
79204;SDS011;68632;47.512;19.104;2023-07-31T05:44:19;5.93;;;2.67;;
79204;SDS011;68632;47.512;19.104;2023-07-31T05:45:21;4.15;;;2.40;;
79204;SDS011;68632;47.512;19.104;2023-07-31T05:46:23;4.90;;;2.40;;
79204;SDS011;68632;47.512;19.104;2023-07-31T05:47:26;4.18;;;2.47;;
79204;SDS011;68632;47.512;19.104;2023-07-31T05:48:28;6.07;;;2.60;;
79204;SDS011;68632;47.512;19.104;2023-07-31T05:49:30;5.78;;;3.25;;
79204;SDS011;68632;47.512;19.104;2023-07-31T05:50:32;4.32;;;2.45;;
79204;SDS011;68632;47.512;19.104;2023-07-31T05:51:34;4.72;;;2.40;;
79204;SDS011;68632;47.512;19.104;2023-07-31T05:52:37;3.33;;;2.47;;
79204;SDS011;68632;47.512;19.104;2023-07-31T05:53:39;5.03;;;2.50;;
79204;SDS011;68632;47.512;19.104;2023-07-31T05:54:42;4.65;;;2.40;;
79204;SDS011;68632;47.512;19.104;2023-07-31T05:55:45;3.70;;;2.60;;
79204;SDS011;68632;47.512;19.104;2023-07-31T05:56:47;5.35;;;2.80;;
79204;SDS011;68632;47.512;19.104;2023-07-31T05:57:49;4.93;;;2.65;;
79204;SDS011;68632;47.512;19.104;2023-07-31T05:58:52;12.20;;;7.05;;
79204;SDS011;68632;47.512;19.104;2023-07-31T05:59:54;10.77;;;6.75;;
79204;SDS011;68632;47.512;19.104;2023-07-31T06:00:56;6.07;;;2.80;;
79204;SDS011;68632;47.512;19.104;2023-07-31T06:01:58;4.63;;;2.70;;
79204;SDS011;68632;47.512;19.104;2023-07-31T06:03:01;4.45;;;2.58;;
79204;SDS011;68632;47.512;19.104;2023-07-31T06:04:03;5.07;;;2.45;;
79204;SDS011;68632;47.512;19.104;2023-07-31T06:05:06;4.25;;;2.30;;
79204;SDS011;68632;47.512;19.104;2023-07-31T06:06:08;6.15;;;2.60;;
79204;SDS011;68632;47.512;19.104;2023-07-31T06:07:10;4.65;;;2.60;;
79204;SDS011;68632;47.512;19.104;2023-07-31T06:08:13;4.90;;;2.47;;
79204;SDS011;68632;47.512;19.104;2023-07-31T06:09:15;6.38;;;2.30;;
79204;SDS011;68632;47.512;19.104;2023-07-31T06:10:17;5.22;;;2.40;;
79204;SDS011;68632;47.512;19.104;2023-07-31T06:11:20;6.05;;;2.33;;
79204;SDS011;68632;47.512;19.104;2023-07-31T06:12:23;5.25;;;2.50;;
79204;SDS011;68632;47.512;19.104;2023-07-31T06:13:26;5.13;;;2.53;;
79204;SDS011;68632;47.512;19.104;2023-07-31T06:14:28;6.35;;;2.70;;
79204;SDS011;68632;47.512;19.104;2023-07-31T06:15:31;5.57;;;2.25;;
79204;SDS011;68632;47.512;19.104;2023-07-31T06:16:33;5.50;;;2.78;;
79204;SDS011;68632;47.512;19.104;2023-07-31T06:17:35;6.85;;;2.72;;
79204;SDS011;68632;47.512;19.104;2023-07-31T06:18:38;3.97;;;2.50;;
79204;SDS011;68632;47.512;19.104;2023-07-31T06:19:40;4.57;;;2.40;;